MV Akson Sara — H3GG — position and weather

sailwx.info

Track history (hours):
 
Tides and Currents Weather Stations Pressure Air Temp Water Temp Dewpoint Dewpoint Depression Visibility Wind Speed Wind Dir Waves Ship Positions

MV Akson Sara

Last reported at 2017-Oct-22 06:51 UTC. Time now 2017-Nov-20 06:20 UTC.
Position N 06°11' W 012°48'.
Warning: this ship's position is 28 days out of date.

Length 190 m; draft 11.5 m.

Type: Cargo ship. MMSI: 356182000.

Date/timePositionNaut miles runAvg speedWind from/ knotsBaromVisibWave heightAir tempDewpointWater temp
2017-Oct-22 06:51N 06°11' W 012°48'513.3
2017-Oct-22 06:29N 06°13' W 012°53'613.3
2017-Oct-22 06:00N 06°16' W 012°59'713.1
2017-Oct-22 05:30N 06°18' W 013°05'  
2017-Oct-17 21:38N 25°57' W 016°03'613.2
2017-Oct-17 21:09N 26°03' W 016°00'213.2
2017-Oct-17 20:59N 26°05' W 015°59'713.2
2017-Oct-17 20:25N 26°12' W 015°55'613.2
2017-Oct-17 19:59N 26°17' W 015°53'613.2
2017-Oct-17 19:30N 26°23' W 015°50'1313.4
2017-Oct-17 18:33N 26°34' W 015°44'113.3
2017-Oct-17 18:28N 26°36' W 015°44'2213.3
2017-Oct-17 16:47N 26°56' W 015°34'1313.4
2017-Oct-17 15:49N 27°08' W 015°28'2213.5
2017-Oct-17 14:11N 27°28' W 015°18'413.3
2017-Oct-17 13:55N 27°31' W 015°17'513.1
2017-Oct-17 13:31N 27°36' W 015°14'612.9
2017-Oct-17 13:01N 27°42' W 015°11'713.4
2017-Oct-17 12:30N 27°48' W 015°08'713.5
2017-Oct-17 12:01N 27°55' W 015°05'613.0
2017-Oct-17 11:31N 28°01' W 015°03'612.5
2017-Oct-17 11:01N 28°07' W 015°01'612.6
2017-Oct-17 10:31N 28°13' W 014°58'612.6
2017-Oct-17 10:01N 28°18' W 014°56'612.5
2017-Oct-17 09:30N 28°24' W 014°53'612.5
2017-Oct-17 09:00N 28°30' W 014°50'612.6
2017-Oct-17 08:30N 28°36' W 014°47'612.6
2017-Oct-17 08:00N 28°41' W 014°43'612.8
2017-Oct-17 07:30N 28°47' W 014°40'612.6
2017-Oct-17 07:00N 28°52' W 014°36'713.4
2017-Oct-17 06:30N 28°58' W 014°32'4213.0
2017-Oct-17 03:16N 29°35' W 014°10'512.6
2017-Oct-17 02:54N 29°40' W 014°08'512.9
2017-Oct-17 02:30N 29°44' W 014°05'712.9
2017-Oct-17 01:56N 29°51' W 014°01'612.9
2017-Oct-17 01:29N 29°56' W 013°58'612.9
2017-Oct-17 01:01N 30°01' W 013°54'712.6
2017-Oct-17 00:26N 30°07' W 013°50'512.4
2017-Oct-17 00:01N 30°12' W 013°47'612.5
2017-Oct-16 23:30N 30°17' W 013°43'812.7
2017-Oct-16 22:50N 30°24' W 013°38'1012.9
2017-Oct-16 22:04N 30°33' W 013°32'112.8
2017-Oct-16 22:01N 30°33' W 013°32'612.8
2017-Oct-16 21:31N 30°39' W 013°28'612.5
2017-Oct-16 21:00N 30°45' W 013°25'812.5
2017-Oct-16 20:20N 30°52' W 013°20'2012.7
2017-Oct-16 18:47N 31°10' W 013°10'1212.6
2017-Oct-16 17:50N 31°21' W 013°06'512.4
2017-Oct-16 17:25N 31°26' W 013°03'512.6
2017-Oct-16 16:59N 31°31' W 013°01'612.9
2017-Oct-16 16:30N 31°37' W 012°58'612.7
2017-Oct-16 16:00N 31°42' W 012°55'713.0
2017-Oct-16 15:28N 31°49' W 012°52'1212.8
2017-Oct-16 14:30N 32°00' W 012°47'26212.9
2017-Oct-15 18:05N 36°16' W 011°33'512.7
2017-Oct-15 17:40N 36°21' W 011°32'212.9
2017-Oct-15 17:30N 36°23' W 011°32'713.1
2017-Oct-15 17:01N 36°29' W 011°30'713.2
2017-Oct-15 16:30N 36°36' W 011°28'713.1
2017-Oct-15 16:00N 36°42' W 011°27'612.8
2017-Oct-15 15:31N 36°48' W 011°25'612.5
2017-Oct-15 15:00N 36°55' W 011°24'1212.4
2017-Oct-15 14:00N 37°07' W 011°20'612.2
2017-Oct-15 13:30N 37°13' W 011°19'612.3
2017-Oct-15 13:01N 37°19' W 011°17'612.6
2017-Oct-15 12:31N 37°25' W 011°15'612.4
2017-Oct-15 12:01N 37°31' W 011°14'612.3
2017-Oct-15 11:30N 37°37' W 011°13'612.5
2017-Oct-15 11:00N 37°43' W 011°11'712.8
2017-Oct-15 10:28N 37°50' W 011°10'613.0
2017-Oct-15 10:00N 37°56' W 011°09'713.5
2017-Oct-15 09:30N 38°02' W 011°07'713.7
2017-Oct-15 09:00N 38°09' W 011°04'713.4
2017-Oct-15 08:30N 38°16' W 011°02'613.2
2017-Oct-15 08:01N 38°22' W 011°00'713.1
2017-Oct-15 07:30N 38°28' W 010°58'712.9
2017-Oct-15 07:00N 38°35' W 010°57'612.7
2017-Oct-15 06:31N 38°41' W 010°55'612.7
2017-Oct-15 06:00N 38°47' W 010°54'612.7
2017-Oct-15 05:30N 38°53' W 010°52'612.5
2017-Oct-15 05:01N 38°59' W 010°50'612.4
2017-Oct-15 04:30N 39°06' W 010°49'612.5
2017-Oct-15 04:01N 39°12' W 010°47'612.7
2017-Oct-15 03:30N 39°18' W 010°46'612.7
2017-Oct-15 03:00N 39°24' W 010°44'612.6
2017-Oct-15 02:30N 39°30' W 010°43'612.8
2017-Oct-15 02:01N 39°37' W 010°41'612.9
2017-Oct-15 01:30N 39°43' W 010°40'713.0
2017-Oct-15 01:01N 39°49' W 010°39'612.7
2017-Oct-15 00:30N 39°56' W 010°37'612.5
2017-Oct-15 00:01N 40°02' W 010°36'612.3
2017-Oct-14 23:30N 40°08' W 010°35'612.5
2017-Oct-14 23:01N 40°14' W 010°34'712.7
2017-Oct-14 22:27N 40°21' W 010°33'54412.4
2017-Oct-13 02:34N 48°47' W 005°52'413.0
2017-Oct-13 02:16N 48°51' W 005°49'912.1
2017-Oct-13 01:30N 48°57' W 005°39'3311.6
2017-Oct-12 22:39N 49°13' W 004°55'310.5
2017-Oct-12 22:20N 49°14' W 004°51'1010.0
2017-Oct-12 21:20N 49°19' W 004°37'310.1
2017-Oct-12 21:00N 49°21' W 004°33'910.2
2017-Oct-12 20:10N 49°25' W 004°22'210.1
2017-Oct-12 19:57N 49°26' W 004°19'510.7
2017-Oct-12 19:30N 49°29' W 004°12'711.2
2017-Oct-12 18:52N 49°32' W 004°03'411.7
2017-Oct-12 18:29N 49°35' W 003°57'611.8
2017-Oct-12 17:58N 49°38' W 003°49'612.2
2017-Oct-12 17:29N 49°41' W 003°41'612.5
2017-Oct-12 17:01N 49°44' W 003°33'612.6
2017-Oct-12 16:30N 49°47' W 003°24'612.5
2017-Oct-12 16:01N 49°50' W 003°16'612.2
2017-Oct-12 15:29N 49°53' W 003°08'611.7
2017-Oct-12 15:00N 49°56' W 003°00'611.3
2017-Oct-12 14:30N 49°59' W 002°52'510.8
2017-Oct-12 14:00N 49°60' W 002°44'510.3
2017-Oct-12 13:30N 50°02' W 002°36'  
Track history (hours):
 
Tides and Currents Weather Stations Pressure Air Temp Water Temp Dewpoint Dewpoint Depression Visibility Wind Speed Wind Dir Waves Ship Positions

MV Akson Sara

Last reported at 2017-Oct-22 06:51 UTC. Time now 2017-Nov-20 06:20 UTC.
Position N 06°11' W 012°48'.
Warning: this ship's position is 28 days out of date.

Length 190 m; draft 11.5 m.

Type: Cargo ship. MMSI: 356182000.

Date/timePositionNaut miles runAvg speedWind from/ knotsBaromVisibWave heightAir tempDewpointWater temp
2017-Oct-22 06:51N 06°11' W 012°48'513.3
2017-Oct-22 06:29N 06°13' W 012°53'613.3
2017-Oct-22 06:00N 06°16' W 012°59'713.1
2017-Oct-22 05:30N 06°18' W 013°05'  
2017-Oct-17 21:38N 25°57' W 016°03'613.2
2017-Oct-17 21:09N 26°03' W 016°00'213.2
2017-Oct-17 20:59N 26°05' W 015°59'713.2
2017-Oct-17 20:25N 26°12' W 015°55'613.2
2017-Oct-17 19:59N 26°17' W 015°53'613.2
2017-Oct-17 19:30N 26°23' W 015°50'1313.4
2017-Oct-17 18:33N 26°34' W 015°44'113.3
2017-Oct-17 18:28N 26°36' W 015°44'2213.3
2017-Oct-17 16:47N 26°56' W 015°34'1313.4
2017-Oct-17 15:49N 27°08' W 015°28'2213.5
2017-Oct-17 14:11N 27°28' W 015°18'413.3
2017-Oct-17 13:55N 27°31' W 015°17'513.1
2017-Oct-17 13:31N 27°36' W 015°14'612.9
2017-Oct-17 13:01N 27°42' W 015°11'713.4
2017-Oct-17 12:30N 27°48' W 015°08'713.5
2017-Oct-17 12:01N 27°55' W 015°05'613.0
2017-Oct-17 11:31N 28°01' W 015°03'612.5
2017-Oct-17 11:01N 28°07' W 015°01'612.6
2017-Oct-17 10:31N 28°13' W 014°58'612.6
2017-Oct-17 10:01N 28°18' W 014°56'612.5
2017-Oct-17 09:30N 28°24' W 014°53'612.5
2017-Oct-17 09:00N 28°30' W 014°50'612.6
2017-Oct-17 08:30N 28°36' W 014°47'612.6
2017-Oct-17 08:00N 28°41' W 014°43'612.8
2017-Oct-17 07:30N 28°47' W 014°40'612.6
2017-Oct-17 07:00N 28°52' W 014°36'713.4
2017-Oct-17 06:30N 28°58' W 014°32'4213.0
2017-Oct-17 03:16N 29°35' W 014°10'512.6
2017-Oct-17 02:54N 29°40' W 014°08'512.9
2017-Oct-17 02:30N 29°44' W 014°05'712.9
2017-Oct-17 01:56N 29°51' W 014°01'612.9
2017-Oct-17 01:29N 29°56' W 013°58'612.9
2017-Oct-17 01:01N 30°01' W 013°54'712.6
2017-Oct-17 00:26N 30°07' W 013°50'512.4
2017-Oct-17 00:01N 30°12' W 013°47'612.5
2017-Oct-16 23:30N 30°17' W 013°43'812.7
2017-Oct-16 22:50N 30°24' W 013°38'1012.9
2017-Oct-16 22:04N 30°33' W 013°32'112.8
2017-Oct-16 22:01N 30°33' W 013°32'612.8
2017-Oct-16 21:31N 30°39' W 013°28'612.5
2017-Oct-16 21:00N 30°45' W 013°25'812.5
2017-Oct-16 20:20N 30°52' W 013°20'2012.7
2017-Oct-16 18:47N 31°10' W 013°10'1212.6
2017-Oct-16 17:50N 31°21' W 013°06'512.4
2017-Oct-16 17:25N 31°26' W 013°03'512.6
2017-Oct-16 16:59N 31°31' W 013°01'612.9
2017-Oct-16 16:30N 31°37' W 012°58'612.7
2017-Oct-16 16:00N 31°42' W 012°55'713.0
2017-Oct-16 15:28N 31°49' W 012°52'1212.8
2017-Oct-16 14:30N 32°00' W 012°47'26212.9
2017-Oct-15 18:05N 36°16' W 011°33'512.7
2017-Oct-15 17:40N 36°21' W 011°32'212.9
2017-Oct-15 17:30N 36°23' W 011°32'713.1
2017-Oct-15 17:01N 36°29' W 011°30'713.2
2017-Oct-15 16:30N 36°36' W 011°28'713.1
2017-Oct-15 16:00N 36°42' W 011°27'612.8
2017-Oct-15 15:31N 36°48' W 011°25'612.5
2017-Oct-15 15:00N 36°55' W 011°24'1212.4
2017-Oct-15 14:00N 37°07' W 011°20'612.2
2017-Oct-15 13:30N 37°13' W 011°19'612.3
2017-Oct-15 13:01N 37°19' W 011°17'612.6
2017-Oct-15 12:31N 37°25' W 011°15'612.4
2017-Oct-15 12:01N 37°31' W 011°14'612.3
2017-Oct-15 11:30N 37°37' W 011°13'612.5
2017-Oct-15 11:00N 37°43' W 011°11'712.8
2017-Oct-15 10:28N 37°50' W 011°10'613.0
2017-Oct-15 10:00N 37°56' W 011°09'713.5
2017-Oct-15 09:30N 38°02' W 011°07'713.7
2017-Oct-15 09:00N 38°09' W 011°04'713.4
2017-Oct-15 08:30N 38°16' W 011°02'613.2
2017-Oct-15 08:01N 38°22' W 011°00'713.1
2017-Oct-15 07:30N 38°28' W 010°58'712.9
2017-Oct-15 07:00N 38°35' W 010°57'612.7
2017-Oct-15 06:31N 38°41' W 010°55'612.7
2017-Oct-15 06:00N 38°47' W 010°54'612.7
2017-Oct-15 05:30N 38°53' W 010°52'612.5
2017-Oct-15 05:01N 38°59' W 010°50'612.4
2017-Oct-15 04:30N 39°06' W 010°49'612.5
2017-Oct-15 04:01N 39°12' W 010°47'612.7
2017-Oct-15 03:30N 39°18' W 010°46'612.7
2017-Oct-15 03:00N 39°24' W 010°44'612.6
2017-Oct-15 02:30N 39°30' W 010°43'612.8
2017-Oct-15 02:01N 39°37' W 010°41'612.9
2017-Oct-15 01:30N 39°43' W 010°40'713.0
2017-Oct-15 01:01N 39°49' W 010°39'612.7
2017-Oct-15 00:30N 39°56' W 010°37'612.5
2017-Oct-15 00:01N 40°02' W 010°36'612.3
2017-Oct-14 23:30N 40°08' W 010°35'612.5
2017-Oct-14 23:01N 40°14' W 010°34'712.7
2017-Oct-14 22:27N 40°21' W 010°33'54412.4
2017-Oct-13 02:34N 48°47' W 005°52'413.0
2017-Oct-13 02:16N 48°51' W 005°49'912.1
2017-Oct-13 01:30N 48°57' W 005°39'3311.6
2017-Oct-12 22:39N 49°13' W 004°55'310.5
2017-Oct-12 22:20N 49°14' W 004°51'1010.0
2017-Oct-12 21:20N 49°19' W 004°37'310.1
2017-Oct-12 21:00N 49°21' W 004°33'910.2
2017-Oct-12 20:10N 49°25' W 004°22'210.1
2017-Oct-12 19:57N 49°26' W 004°19'510.7
2017-Oct-12 19:30N 49°29' W 004°12'711.2
2017-Oct-12 18:52N 49°32' W 004°03'411.7
2017-Oct-12 18:29N 49°35' W 003°57'611.8
2017-Oct-12 17:58N 49°38' W 003°49'612.2
2017-Oct-12 17:29N 49°41' W 003°41'612.5
2017-Oct-12 17:01N 49°44' W 003°33'612.6
2017-Oct-12 16:30N 49°47' W 003°24'612.5
2017-Oct-12 16:01N 49°50' W 003°16'612.2
2017-Oct-12 15:29N 49°53' W 003°08'611.7
2017-Oct-12 15:00N 49°56' W 003°00'611.3
2017-Oct-12 14:30N 49°59' W 002°52'510.8
2017-Oct-12 14:00N 49°60' W 002°44'510.3
2017-Oct-12 13:30N 50°02' W 002°36'  

Dump ship's entire track history